createdAt,value
2024-05-09T00:01:26.605Z,100.00
2024-05-09T00:04:37.104Z,100.00
2024-05-09T00:07:50.152Z,100.00
2024-05-09T00:11:00.668Z,100.00
2024-05-09T00:14:11.442Z,100.00
2024-05-09T00:17:22.144Z,100.00
2024-05-09T00:20:37.914Z,100.00
2024-05-09T00:23:53.530Z,100.00
2024-05-09T00:27:04.238Z,100.00
2024-05-09T00:30:21.458Z,100.00
2024-05-09T00:33:39.499Z,100.00
2024-05-09T00:36:50.095Z,100.00
2024-05-09T00:40:03.627Z,100.00
2024-05-09T00:43:15.263Z,100.00
2024-05-09T00:46:26.151Z,100.00
2024-05-09T00:49:37.231Z,100.00
2024-05-09T00:52:48.993Z,100.00
2024-05-09T00:56:03.279Z,100.00
2024-05-09T00:59:14.593Z,100.00
2024-05-09T01:02:26.011Z,100.00
2024-05-09T01:05:36.420Z,100.00
2024-05-09T01:08:46.999Z,100.00
2024-05-09T01:12:00.088Z,100.00
2024-05-09T01:15:11.504Z,100.00
2024-05-09T01:18:21.933Z,100.00
2024-05-09T01:21:33.556Z,100.00
2024-05-09T01:24:46.604Z,100.00
2024-05-09T01:27:56.875Z,100.00
2024-05-09T01:31:07.546Z,100.00
2024-05-09T01:38:32.590Z,100.00
2024-05-09T01:41:45.571Z,100.00
2024-05-09T01:44:55.816Z,100.00
2024-05-09T01:48:06.521Z,100.00
2024-05-09T01:51:17.237Z,100.00
2024-05-09T01:54:27.582Z,100.00
2024-05-09T01:57:40.589Z,100.00
2024-05-09T02:00:51.873Z,100.00
2024-05-09T02:07:30.118Z,100.00
2024-05-09T02:10:40.560Z,100.00
2024-05-09T02:13:54.380Z,100.00
2024-05-09T02:17:04.861Z,100.00
2024-05-09T02:20:22.604Z,100.00
2024-05-09T02:23:40.015Z,100.00
2024-05-09T02:26:50.325Z,100.00
2024-05-09T02:30:09.896Z,100.00
2024-05-09T02:33:25.782Z,100.00
2024-05-09T02:36:36.332Z,100.00
2024-05-09T02:39:44.044Z,100.00
2024-05-09T02:42:54.370Z,100.00
2024-05-09T02:46:04.993Z,100.00
2024-05-09T02:49:15.968Z,100.00
2024-05-09T02:52:23.751Z,100.00
2024-05-09T02:55:34.064Z,100.00
2024-05-09T02:58:41.798Z,100.00
2024-05-09T03:01:54.818Z,100.00
2024-05-09T03:05:02.720Z,100.00
2024-05-09T03:08:13.790Z,100.00
2024-05-09T03:11:22.279Z,100.00
2024-05-09T03:14:32.700Z,100.00
2024-05-09T03:17:46.543Z,100.00
2024-05-09T03:20:54.532Z,100.00
2024-05-09T03:24:04.935Z,100.00
2024-05-09T03:27:12.915Z,100.00
2024-05-09T03:30:31.166Z,100.00
2024-05-09T03:33:53.048Z,100.00
2024-05-09T03:37:03.675Z,100.00
2024-05-09T03:40:21.049Z,100.00
2024-05-09T03:43:36.540Z,100.00
2024-05-09T03:46:46.976Z,100.00
2024-05-09T03:49:57.347Z,100.00
2024-05-09T03:53:08.151Z,100.00
2024-05-09T03:56:18.600Z,100.00
2024-05-09T03:59:26.524Z,100.00
2024-05-09T04:02:37.158Z,100.00
2024-05-09T04:05:47.838Z,100.00
2024-05-09T04:08:58.303Z,100.00
2024-05-09T04:12:11.309Z,100.00
2024-05-09T04:15:19.095Z,100.00
2024-05-09T04:18:30.135Z,100.00
2024-05-09T04:21:41.210Z,100.00
2024-05-09T04:24:52.842Z,100.00
2024-05-09T04:28:00.679Z,100.00
2024-05-09T04:31:11.013Z,100.00
2024-05-09T04:34:18.938Z,100.00
2024-05-09T04:37:33.143Z,100.00
2024-05-09T04:40:40.908Z,100.00
2024-05-09T04:43:52.771Z,100.00
2024-05-09T04:47:01.707Z,100.00
2024-05-09T04:50:17.698Z,100.00
2024-05-09T04:53:35.103Z,100.00
2024-05-09T04:56:45.828Z,100.00
2024-05-09T04:59:53.679Z,100.00
2024-05-09T05:03:06.901Z,100.00
2024-05-09T05:06:15.778Z,100.00
2024-05-09T05:09:29.022Z,100.00
2024-05-09T05:12:55.560Z,100.00
2024-05-09T05:16:06.086Z,100.00
2024-05-09T05:19:16.955Z,100.00
2024-05-09T05:22:27.970Z,100.00
2024-05-09T05:25:38.320Z,100.00
2024-05-09T05:28:51.075Z,100.00
2024-05-09T05:31:58.938Z,100.00
2024-05-09T05:35:09.481Z,100.00
2024-05-09T05:38:23.740Z,100.00
2024-05-09T05:41:36.720Z,100.00
2024-05-09T05:44:47.059Z,100.00
2024-05-09T05:47:55.261Z,100.00
2024-05-09T05:51:07.717Z,100.00
2024-05-09T05:54:15.573Z,100.00
2024-05-09T05:57:31.015Z,100.00
2024-05-09T06:00:43.233Z,100.00
2024-05-09T06:03:53.957Z,100.00
2024-05-09T06:07:01.793Z,100.00
2024-05-09T06:10:17.668Z,100.00
2024-05-09T06:13:32.436Z,99.08
2024-05-09T06:16:43.554Z,96.62
2024-05-09T06:19:51.507Z,95.48
2024-05-09T06:23:03.059Z,96.24
2024-05-09T06:26:14.537Z,96.03
2024-05-09T06:29:25.054Z,96.05
2024-05-09T06:32:35.582Z,97.86
2024-05-09T06:35:43.792Z,98.51
2024-05-09T06:38:54.282Z,96.99
2024-05-09T06:42:02.000Z,94.76
2024-05-09T06:45:15.760Z,92.53
2024-05-09T06:48:23.855Z,91.78
2024-05-09T06:51:38.513Z,93.02
2024-05-09T06:54:48.797Z,92.67
2024-05-09T06:57:57.700Z,91.85
2024-05-09T07:01:10.715Z,92.94
2024-05-09T07:04:21.229Z,92.04
2024-05-09T07:07:31.647Z,89.70
2024-05-09T07:10:39.521Z,91.75
2024-05-09T07:13:50.183Z,91.10
2024-05-09T07:17:03.473Z,90.90
2024-05-09T07:20:16.603Z,88.14
2024-05-09T07:23:33.825Z,86.85
2024-05-09T07:26:41.659Z,80.44
2024-05-09T07:29:51.999Z,83.22
2024-05-09T07:33:05.192Z,83.55
2024-05-09T07:36:15.873Z,81.48
2024-05-09T07:39:24.659Z,80.29
2024-05-09T07:42:35.127Z,80.79
2024-05-09T07:45:51.284Z,75.44
2024-05-09T07:53:30.352Z,78.15
2024-05-09T07:55:49.340Z,78.14
2024-05-09T07:58:59.750Z,77.02
2024-05-09T08:02:07.873Z,77.75
2024-05-09T08:05:21.088Z,79.08
2024-05-09T08:08:31.652Z,82.87
2024-05-09T08:11:43.073Z,79.41
2024-05-09T08:14:55.725Z,78.12
2024-05-09T08:18:07.645Z,76.65
2024-05-09T08:21:21.672Z,76.27
2024-05-09T08:24:34.474Z,76.95
2024-05-09T08:27:42.863Z,78.01
2024-05-09T08:30:54.230Z,74.60
2024-05-09T08:34:05.738Z,68.53
2024-05-09T08:37:22.328Z,61.34
2024-05-09T08:40:37.199Z,59.76
2024-05-09T08:43:49.551Z,63.78
2024-05-09T08:46:57.367Z,65.87
2024-05-09T08:50:23.907Z,67.50
2024-05-09T08:53:44.259Z,63.49
2024-05-09T08:56:55.456Z,66.64
2024-05-09T09:00:10.017Z,66.08
2024-05-09T09:03:29.920Z,66.68
2024-05-09T09:06:38.873Z,66.60
2024-05-09T09:09:54.704Z,61.99
2024-05-09T09:13:09.892Z,61.54
2024-05-09T09:16:20.601Z,58.80
2024-05-09T09:19:30.169Z,58.54
2024-05-09T09:22:41.899Z,54.53
2024-05-09T09:25:52.937Z,53.88
2024-05-09T09:29:04.611Z,54.21
2024-05-09T09:32:15.859Z,55.85
2024-05-09T09:35:23.820Z,57.27
2024-05-09T09:38:39.168Z,59.72
2024-05-09T09:41:50.469Z,62.17
2024-05-09T09:45:05.065Z,63.43
2024-05-09T09:48:16.605Z,64.10
2024-05-09T09:51:28.262Z,61.16
2024-05-09T09:54:40.173Z,61.83
2024-05-09T09:57:50.630Z,61.07
2024-05-09T10:01:01.155Z,58.58
2024-05-09T10:04:12.941Z,58.30
2024-05-09T10:07:27.703Z,61.78
2024-05-09T10:10:36.522Z,60.18
2024-05-09T10:13:50.802Z,59.58
2024-05-09T10:17:07.853Z,59.63
2024-05-09T10:20:21.862Z,58.36
2024-05-09T10:23:36.558Z,58.03
2024-05-09T10:26:53.487Z,55.17
2024-05-09T10:30:14.380Z,59.13
2024-05-09T10:33:28.225Z,56.35
2024-05-09T10:36:43.228Z,56.32
2024-05-09T10:39:56.008Z,57.32
2024-05-09T10:43:06.488Z,56.77
2024-05-09T10:46:20.142Z,58.83
2024-05-09T10:49:29.941Z,56.44
2024-05-09T10:52:40.051Z,56.63
2024-05-09T10:55:56.749Z,57.42
2024-05-09T10:59:06.938Z,57.18
2024-05-09T11:02:18.841Z,56.36
2024-05-09T11:05:30.769Z,57.26
2024-05-09T11:08:41.925Z,54.73
2024-05-09T11:11:49.757Z,52.92
2024-05-09T11:15:00.026Z,55.51
2024-05-09T11:18:24.977Z,55.67
2024-05-09T11:21:36.212Z,55.76
2024-05-09T11:24:47.441Z,58.16
2024-05-09T11:27:59.179Z,56.78
2024-05-09T11:31:11.242Z,57.11
2024-05-09T11:34:23.956Z,54.31
2024-05-09T11:37:36.834Z,53.95
2024-05-09T11:40:44.672Z,57.32
2024-05-09T11:43:54.663Z,57.08
2024-05-09T11:47:04.888Z,56.86
2024-05-09T11:50:26.808Z,57.15
2024-05-09T11:53:37.805Z,53.21
2024-05-09T11:56:48.030Z,56.42
2024-05-09T11:59:57.389Z,58.88
2024-05-09T12:03:08.406Z,55.67
2024-05-09T12:06:18.627Z,56.88
2024-05-09T12:09:28.792Z,56.61
2024-05-09T12:12:37.414Z,53.19
2024-05-09T12:15:50.358Z,52.37
2024-05-09T12:18:58.851Z,50.38
2024-05-09T12:22:11.676Z,51.58
2024-05-09T12:25:19.477Z,50.34
2024-05-09T12:28:29.959Z,51.90
2024-05-09T12:31:37.667Z,52.51
2024-05-09T12:34:47.915Z,53.67
2024-05-09T12:37:58.135Z,53.46
2024-05-09T12:41:09.194Z,50.79
2024-05-09T12:44:19.495Z,52.60
2024-05-09T12:47:27.233Z,53.61
2024-05-09T12:50:38.496Z,53.80
2024-05-09T12:53:48.697Z,52.59
2024-05-09T12:56:58.738Z,52.68
2024-05-09T13:00:14.186Z,51.00
2024-05-09T13:03:30.499Z,50.69
2024-05-09T13:06:38.114Z,52.08
2024-05-09T13:09:50.952Z,51.23
2024-05-09T13:12:58.488Z,53.07
2024-05-09T13:16:09.693Z,52.05
2024-05-09T13:19:17.447Z,51.14
2024-05-09T13:22:27.500Z,51.98
2024-05-09T13:25:38.253Z,50.01
2024-05-09T13:28:48.681Z,51.62
2024-05-09T13:31:59.122Z,50.63
2024-05-09T13:35:07.103Z,53.04
2024-05-09T13:38:17.305Z,53.86
2024-05-09T13:41:30.105Z,53.92
2024-05-09T13:44:37.886Z,54.08
2024-05-09T13:47:48.721Z,56.08
2024-05-09T13:50:59.262Z,53.53
2024-05-09T13:54:09.904Z,54.41
2024-05-09T13:57:20.723Z,55.92
2024-05-09T14:00:42.681Z,55.35
2024-05-09T14:03:55.102Z,54.24
2024-05-09T14:07:05.950Z,54.25
2024-05-09T14:10:22.620Z,54.47
2024-05-09T14:13:38.841Z,51.62
2024-05-09T14:16:46.598Z,53.53
2024-05-09T14:20:04.788Z,52.89
2024-05-09T14:23:12.379Z,52.67
2024-05-09T14:26:23.544Z,53.52
2024-05-09T14:29:35.369Z,56.69
2024-05-09T14:32:45.858Z,56.81
2024-05-09T14:35:53.962Z,58.26
2024-05-09T14:39:04.183Z,56.59
2024-05-09T14:42:11.882Z,57.41
2024-05-09T14:45:24.879Z,56.96
2024-05-09T14:48:35.968Z,57.41
2024-05-09T14:51:50.549Z,56.61
2024-05-09T14:55:00.716Z,57.81
2024-05-09T14:58:13.316Z,60.10
2024-05-09T15:01:24.969Z,57.32
2024-05-09T15:04:35.362Z,58.51
2024-05-09T15:07:47.610Z,58.56
2024-05-09T15:10:57.901Z,58.20
2024-05-09T15:14:05.643Z,57.97
2024-05-09T15:17:19.395Z,54.14
2024-05-09T15:20:34.709Z,52.49
2024-05-09T15:23:44.239Z,54.29
2024-05-09T15:26:54.576Z,52.88
2024-05-09T15:30:05.625Z,52.44
2024-05-09T15:33:21.910Z,50.85
2024-05-09T15:36:32.309Z,50.96
2024-05-09T15:39:40.510Z,51.56
2024-05-09T15:42:51.690Z,51.61
2024-05-09T15:45:59.454Z,50.49
2024-05-09T15:49:12.888Z,50.35
2024-05-09T15:52:20.549Z,51.92
2024-05-09T15:55:34.422Z,52.79
2024-05-09T15:58:44.960Z,53.89
2024-05-09T16:01:55.692Z,52.94
2024-05-09T16:05:06.660Z,52.50
2024-05-09T16:08:17.983Z,54.27
2024-05-09T16:11:27.965Z,53.07
2024-05-09T16:14:35.492Z,54.22
2024-05-09T16:17:45.745Z,53.73
2024-05-09T16:21:00.238Z,54.63
2024-05-09T16:24:10.557Z,55.38
2024-05-09T16:27:19.194Z,55.11
2024-05-09T16:30:34.800Z,55.77
2024-05-09T16:33:46.251Z,56.97
2024-05-09T16:36:59.309Z,54.99
2024-05-09T16:40:21.770Z,56.03
2024-05-09T16:43:39.837Z,55.93
2024-05-09T16:46:49.951Z,55.93
2024-05-09T16:49:57.619Z,57.14
2024-05-09T16:53:10.291Z,56.17
2024-05-09T16:56:18.299Z,56.14
2024-05-09T16:59:28.973Z,56.34
2024-05-09T17:02:40.090Z,56.36
2024-05-09T17:05:51.199Z,57.28
2024-05-09T17:09:08.644Z,56.51
2024-05-09T17:12:22.161Z,56.48
2024-05-09T17:15:32.640Z,57.56
2024-05-09T17:18:43.491Z,58.59
2024-05-09T17:21:54.081Z,58.68
2024-05-09T17:25:07.583Z,57.45
2024-05-09T17:28:15.271Z,57.26
2024-05-09T17:31:26.073Z,56.14
2024-05-09T17:34:34.657Z,57.34
2024-05-09T17:37:45.230Z,56.37
2024-05-09T17:40:55.656Z,57.37
2024-05-09T17:44:09.712Z,58.98
2024-05-09T17:47:18.185Z,60.22
2024-05-09T17:50:35.227Z,57.86
2024-05-09T17:53:45.244Z,58.43
2024-05-09T17:56:58.927Z,57.04
2024-05-09T18:00:11.616Z,59.38
2024-05-09T18:03:26.194Z,59.91
2024-05-09T18:06:34.319Z,62.35
2024-05-09T18:09:44.897Z,63.26
2024-05-09T18:12:57.906Z,65.40
2024-05-09T18:16:06.843Z,66.89
2024-05-09T18:19:18.500Z,67.43
2024-05-09T18:22:29.343Z,68.83
2024-05-09T18:25:37.587Z,70.78
2024-05-09T18:28:50.943Z,72.48
2024-05-09T18:31:59.271Z,74.28
2024-05-09T18:35:10.178Z,75.46
2024-05-09T18:38:18.664Z,76.86
2024-05-09T18:41:30.058Z,77.96
2024-05-09T18:44:40.416Z,79.18
2024-05-09T18:47:50.819Z,80.84
2024-05-09T18:50:58.765Z,82.24
2024-05-09T18:54:09.216Z,83.74
2024-05-09T18:57:19.584Z,85.40
2024-05-09T19:00:35.736Z,86.93
2024-05-09T19:03:49.100Z,89.03
2024-05-09T19:06:56.737Z,89.99
2024-05-09T19:10:14.454Z,90.79
2024-05-09T19:13:28.421Z,91.74
2024-05-09T19:16:38.646Z,92.68
2024-05-09T19:19:49.311Z,93.41
2024-05-09T19:22:56.829Z,93.82
2024-05-09T19:26:08.559Z,94.94
2024-05-09T19:29:16.037Z,95.83
2024-05-09T19:32:29.340Z,97.02
2024-05-09T19:35:36.931Z,97.42
2024-05-09T19:38:48.325Z,98.05
2024-05-09T19:41:58.461Z,98.40
2024-05-09T19:45:07.667Z,99.43
2024-05-09T19:48:21.063Z,99.21
2024-05-09T19:51:28.940Z,99.61
2024-05-09T19:54:38.994Z,99.84
2024-05-09T19:57:46.621Z,100.00
2024-05-09T20:00:56.780Z,100.00
2024-05-09T20:04:07.217Z,100.00
2024-05-09T20:07:17.591Z,100.00
2024-05-09T20:10:31.411Z,100.00
2024-05-09T20:13:43.723Z,100.00
2024-05-09T20:16:51.202Z,100.00
2024-05-09T20:20:07.328Z,100.00
2024-05-09T20:23:15.157Z,100.00
2024-05-09T20:26:28.627Z,100.00
2024-05-09T20:29:37.390Z,100.00
2024-05-09T20:32:47.797Z,100.00
2024-05-09T20:36:02.367Z,100.00
2024-05-09T20:39:12.890Z,100.00
2024-05-09T20:42:20.632Z,100.00
2024-05-09T20:45:31.416Z,100.00
2024-05-09T20:48:39.393Z,100.00
2024-05-09T20:51:52.672Z,100.00
2024-05-09T20:55:00.542Z,100.00
2024-05-09T20:58:11.983Z,100.00
2024-05-09T21:01:19.721Z,100.00
2024-05-09T21:04:30.678Z,100.00
2024-05-09T21:07:41.500Z,100.00
2024-05-09T21:10:52.749Z,100.00
2024-05-09T21:14:01.408Z,100.00
2024-05-09T21:17:11.718Z,100.00
2024-05-09T21:20:24.300Z,100.00
2024-05-09T21:23:43.040Z,100.00
2024-05-09T21:26:51.036Z,100.00
2024-05-09T21:30:01.060Z,100.00
2024-05-09T21:33:10.390Z,100.00
2024-05-09T21:36:21.855Z,100.00
2024-05-09T21:39:32.675Z,100.00
2024-05-09T21:42:42.761Z,100.00
2024-05-09T21:45:52.871Z,100.00
2024-05-09T21:49:00.448Z,100.00
2024-05-09T21:52:10.398Z,100.00
2024-05-09T21:55:20.612Z,100.00
2024-05-09T21:58:30.555Z,100.00
2024-05-09T22:01:38.439Z,100.00
2024-05-09T22:04:48.736Z,100.00
2024-05-09T22:07:57.062Z,100.00
2024-05-09T22:11:10.090Z,100.00
2024-05-09T22:14:21.188Z,100.00
2024-05-09T22:17:28.621Z,100.00
2024-05-09T22:20:43.670Z,100.00
2024-05-09T22:23:55.642Z,100.00
2024-05-09T22:27:08.909Z,100.00
2024-05-09T22:30:23.783Z,100.00
2024-05-09T22:33:37.964Z,100.00
2024-05-09T22:36:45.841Z,100.00
2024-05-09T22:39:55.976Z,100.00
2024-05-09T22:43:06.363Z,100.00
2024-05-09T22:46:16.626Z,100.00
2024-05-09T22:49:26.635Z,100.00
2024-05-09T22:52:34.064Z,100.00
2024-05-09T22:55:44.515Z,100.00
2024-05-09T22:58:54.623Z,100.00
2024-05-09T23:02:07.743Z,100.00
2024-05-09T23:05:15.520Z,100.00
2024-05-09T23:08:25.736Z,100.00
2024-05-09T23:11:33.140Z,100.00
2024-05-09T23:14:46.699Z,100.00
2024-05-09T23:17:57.297Z,100.00
2024-05-09T23:21:08.620Z,100.00
2024-05-09T23:24:18.632Z,100.00
2024-05-09T23:27:26.267Z,100.00
2024-05-09T23:30:40.785Z,100.00
2024-05-09T23:33:49.505Z,100.00
2024-05-09T23:36:59.756Z,100.00
2024-05-09T23:40:09.730Z,100.00
2024-05-09T23:43:19.977Z,100.00
2024-05-09T23:46:30.099Z,100.00
2024-05-09T23:49:40.198Z,100.00
2024-05-09T23:52:47.641Z,100.00
2024-05-09T23:55:58.138Z,100.00
2024-05-09T23:59:08.787Z,100.00
